sensor_id;sensor_type;location;lat;lon;timestamp;P1;durP1;ratioP1;P2;durP2;ratioP2
39362;SDS011;25088;43.238;23.110;2022-11-15T00:01:34;0.20;;;0.20;;
39362;SDS011;25088;43.238;23.110;2022-11-15T00:04:02;0.22;;;0.22;;
39362;SDS011;25088;43.238;23.110;2022-11-15T00:06:28;0.30;;;0.30;;
39362;SDS011;25088;43.238;23.110;2022-11-15T00:08:53;0.30;;;0.30;;
39362;SDS011;25088;43.238;23.110;2022-11-15T00:11:19;0.30;;;0.30;;
39362;SDS011;25088;43.238;23.110;2022-11-15T00:13:44;0.30;;;0.30;;
39362;SDS011;25088;43.238;23.110;2022-11-15T00:16:10;0.30;;;0.30;;
39362;SDS011;25088;43.238;23.110;2022-11-15T00:18:36;0.30;;;0.30;;
39362;SDS011;25088;43.238;23.110;2022-11-15T00:21:07;0.30;;;0.30;;
39362;SDS011;25088;43.238;23.110;2022-11-15T00:23:35;0.30;;;0.30;;
39362;SDS011;25088;43.238;23.110;2022-11-15T00:26:00;0.30;;;0.30;;
39362;SDS011;25088;43.238;23.110;2022-11-15T00:28:26;0.30;;;0.30;;
39362;SDS011;25088;43.238;23.110;2022-11-15T00:30:52;0.30;;;0.30;;
39362;SDS011;25088;43.238;23.110;2022-11-15T00:33:17;0.30;;;0.30;;
39362;SDS011;25088;43.238;23.110;2022-11-15T00:35:43;0.30;;;0.30;;
39362;SDS011;25088;43.238;23.110;2022-11-15T00:38:08;0.30;;;0.30;;
39362;SDS011;25088;43.238;23.110;2022-11-15T00:40:34;0.30;;;0.30;;
39362;SDS011;25088;43.238;23.110;2022-11-15T00:42:59;0.30;;;0.30;;
39362;SDS011;25088;43.238;23.110;2022-11-15T00:45:25;0.30;;;0.30;;
39362;SDS011;25088;43.238;23.110;2022-11-15T00:47:51;0.30;;;0.30;;
39362;SDS011;25088;43.238;23.110;2022-11-15T00:50:16;0.30;;;0.30;;
39362;SDS011;25088;43.238;23.110;2022-11-15T00:52:42;0.30;;;0.30;;
39362;SDS011;25088;43.238;23.110;2022-11-15T00:55:15;0.30;;;0.30;;
39362;SDS011;25088;43.238;23.110;2022-11-15T00:57:41;0.30;;;0.30;;
39362;SDS011;25088;43.238;23.110;2022-11-15T01:00:07;0.30;;;0.30;;
39362;SDS011;25088;43.238;23.110;2022-11-15T01:02:33;0.30;;;0.30;;
39362;SDS011;25088;43.238;23.110;2022-11-15T01:04:59;0.30;;;0.30;;
39362;SDS011;25088;43.238;23.110;2022-11-15T01:07:25;0.30;;;0.30;;
39362;SDS011;25088;43.238;23.110;2022-11-15T01:09:50;0.30;;;0.30;;
39362;SDS011;25088;43.238;23.110;2022-11-15T01:12:16;0.30;;;0.30;;
39362;SDS011;25088;43.238;23.110;2022-11-15T01:14:41;0.30;;;0.30;;
39362;SDS011;25088;43.238;23.110;2022-11-15T01:17:07;0.30;;;0.30;;
39362;SDS011;25088;43.238;23.110;2022-11-15T01:19:32;0.30;;;0.30;;
39362;SDS011;25088;43.238;23.110;2022-11-15T01:21:57;0.30;;;0.30;;
39362;SDS011;25088;43.238;23.110;2022-11-15T01:24:23;0.30;;;0.30;;
39362;SDS011;25088;43.238;23.110;2022-11-15T01:26:48;0.30;;;0.30;;
39362;SDS011;25088;43.238;23.110;2022-11-15T01:29:14;0.30;;;0.30;;
39362;SDS011;25088;43.238;23.110;2022-11-15T01:31:39;0.30;;;0.30;;
39362;SDS011;25088;43.238;23.110;2022-11-15T01:34:05;0.30;;;0.30;;
39362;SDS011;25088;43.238;23.110;2022-11-15T01:36:30;0.30;;;0.30;;
39362;SDS011;25088;43.238;23.110;2022-11-15T01:38:57;0.30;;;0.30;;
39362;SDS011;25088;43.238;23.110;2022-11-15T01:41:25;0.30;;;0.30;;
39362;SDS011;25088;43.238;23.110;2022-11-15T01:43:53;0.30;;;0.30;;
39362;SDS011;25088;43.238;23.110;2022-11-15T01:46:39;0.30;;;0.30;;
39362;SDS011;25088;43.238;23.110;2022-11-15T01:49:11;0.30;;;0.30;;
39362;SDS011;25088;43.238;23.110;2022-11-15T01:51:39;0.30;;;0.30;;
39362;SDS011;25088;43.238;23.110;2022-11-15T01:54:06;0.30;;;0.30;;
39362;SDS011;25088;43.238;23.110;2022-11-15T01:56:38;0.30;;;0.30;;
39362;SDS011;25088;43.238;23.110;2022-11-15T01:59:11;0.30;;;0.30;;
39362;SDS011;25088;43.238;23.110;2022-11-15T02:01:37;0.30;;;0.30;;
39362;SDS011;25088;43.238;23.110;2022-11-15T02:04:16;0.30;;;0.30;;
39362;SDS011;25088;43.238;23.110;2022-11-15T02:06:45;0.30;;;0.30;;
39362;SDS011;25088;43.238;23.110;2022-11-15T02:09:13;0.30;;;0.30;;
39362;SDS011;25088;43.238;23.110;2022-11-15T02:11:39;0.30;;;0.30;;
39362;SDS011;25088;43.238;23.110;2022-11-15T02:14:05;0.30;;;0.30;;
39362;SDS011;25088;43.238;23.110;2022-11-15T02:19:13;0.30;;;0.30;;
39362;SDS011;25088;43.238;23.110;2022-11-15T02:21:44;0.30;;;0.30;;
39362;SDS011;25088;43.238;23.110;2022-11-15T02:32:40;0.30;;;0.30;;
39362;SDS011;25088;43.238;23.110;2022-11-15T02:35:28;0.30;;;0.30;;
39362;SDS011;25088;43.238;23.110;2022-11-15T02:38:17;0.30;;;0.30;;
39362;SDS011;25088;43.238;23.110;2022-11-15T02:41:07;0.30;;;0.30;;
39362;SDS011;25088;43.238;23.110;2022-11-15T02:43:54;0.30;;;0.30;;
39362;SDS011;25088;43.238;23.110;2022-11-15T02:46:28;0.30;;;0.30;;
39362;SDS011;25088;43.238;23.110;2022-11-15T02:49:15;0.30;;;0.30;;
39362;SDS011;25088;43.238;23.110;2022-11-15T02:51:41;0.30;;;0.30;;
39362;SDS011;25088;43.238;23.110;2022-11-15T02:54:14;0.30;;;0.30;;
39362;SDS011;25088;43.238;23.110;2022-11-15T02:56:45;0.30;;;0.30;;
39362;SDS011;25088;43.238;23.110;2022-11-15T03:09:50;0.30;;;0.30;;
39362;SDS011;25088;43.238;23.110;2022-11-15T03:12:24;0.30;;;0.30;;
39362;SDS011;25088;43.238;23.110;2022-11-15T03:15:06;0.30;;;0.30;;
39362;SDS011;25088;43.238;23.110;2022-11-15T03:17:36;0.30;;;0.30;;
39362;SDS011;25088;43.238;23.110;2022-11-15T03:20:23;0.30;;;0.30;;
39362;SDS011;25088;43.238;23.110;2022-11-15T03:22:50;0.30;;;0.30;;
39362;SDS011;25088;43.238;23.110;2022-11-15T03:25:19;0.28;;;0.28;;
39362;SDS011;25088;43.238;23.110;2022-11-15T03:27:50;0.30;;;0.30;;
39362;SDS011;25088;43.238;23.110;2022-11-15T03:30:19;0.30;;;0.30;;
39362;SDS011;25088;43.238;23.110;2022-11-15T03:32:53;0.30;;;0.30;;
39362;SDS011;25088;43.238;23.110;2022-11-15T03:35:22;0.30;;;0.30;;
39362;SDS011;25088;43.238;23.110;2022-11-15T03:38:00;0.30;;;0.30;;
39362;SDS011;25088;43.238;23.110;2022-11-15T03:41:10;0.30;;;0.30;;
39362;SDS011;25088;43.238;23.110;2022-11-15T03:46:20;0.30;;;0.30;;
39362;SDS011;25088;43.238;23.110;2022-11-15T03:48:53;0.30;;;0.30;;
39362;SDS011;25088;43.238;23.110;2022-11-15T03:51:24;0.30;;;0.30;;
39362;SDS011;25088;43.238;23.110;2022-11-15T03:53:49;0.30;;;0.30;;
39362;SDS011;25088;43.238;23.110;2022-11-15T03:56:15;0.30;;;0.30;;
39362;SDS011;25088;43.238;23.110;2022-11-15T03:58:40;0.30;;;0.30;;
39362;SDS011;25088;43.238;23.110;2022-11-15T04:01:06;0.30;;;0.30;;
39362;SDS011;25088;43.238;23.110;2022-11-15T04:03:31;0.30;;;0.30;;
39362;SDS011;25088;43.238;23.110;2022-11-15T04:05:57;0.30;;;0.30;;
39362;SDS011;25088;43.238;23.110;2022-11-15T04:08:22;0.30;;;0.30;;
39362;SDS011;25088;43.238;23.110;2022-11-15T04:10:48;0.30;;;0.30;;
39362;SDS011;25088;43.238;23.110;2022-11-15T04:13:14;0.30;;;0.30;;
39362;SDS011;25088;43.238;23.110;2022-11-15T04:15:40;0.30;;;0.30;;
39362;SDS011;25088;43.238;23.110;2022-11-15T04:18:05;0.30;;;0.30;;
39362;SDS011;25088;43.238;23.110;2022-11-15T04:20:31;0.30;;;0.30;;
39362;SDS011;25088;43.238;23.110;2022-11-15T04:23:22;0.30;;;0.30;;
39362;SDS011;25088;43.238;23.110;2022-11-15T04:26:11;0.30;;;0.30;;
39362;SDS011;25088;43.238;23.110;2022-11-15T04:28:41;0.30;;;0.30;;
39362;SDS011;25088;43.238;23.110;2022-11-15T04:31:25;0.30;;;0.30;;
39362;SDS011;25088;43.238;23.110;2022-11-15T04:33:51;0.30;;;0.30;;
39362;SDS011;25088;43.238;23.110;2022-11-15T04:36:16;0.30;;;0.30;;
39362;SDS011;25088;43.238;23.110;2022-11-15T04:39:00;0.30;;;0.30;;
39362;SDS011;25088;43.238;23.110;2022-11-15T04:41:26;0.30;;;0.30;;
39362;SDS011;25088;43.238;23.110;2022-11-15T04:43:51;0.30;;;0.30;;
39362;SDS011;25088;43.238;23.110;2022-11-15T04:46:17;0.30;;;0.30;;
39362;SDS011;25088;43.238;23.110;2022-11-15T04:48:42;0.30;;;0.30;;
39362;SDS011;25088;43.238;23.110;2022-11-15T04:51:08;0.30;;;0.30;;
39362;SDS011;25088;43.238;23.110;2022-11-15T04:53:33;0.30;;;0.30;;
39362;SDS011;25088;43.238;23.110;2022-11-15T04:55:59;0.30;;;0.30;;
39362;SDS011;25088;43.238;23.110;2022-11-15T04:58:24;0.30;;;0.30;;
39362;SDS011;25088;43.238;23.110;2022-11-15T05:00:50;0.30;;;0.30;;
39362;SDS011;25088;43.238;23.110;2022-11-15T05:03:15;0.30;;;0.30;;
39362;SDS011;25088;43.238;23.110;2022-11-15T05:05:59;0.30;;;0.30;;
39362;SDS011;25088;43.238;23.110;2022-11-15T05:08:25;0.30;;;0.30;;
39362;SDS011;25088;43.238;23.110;2022-11-15T05:10:51;0.30;;;0.30;;
39362;SDS011;25088;43.238;23.110;2022-11-15T05:13:16;0.30;;;0.30;;
39362;SDS011;25088;43.238;23.110;2022-11-15T05:15:42;0.30;;;0.30;;
39362;SDS011;25088;43.238;23.110;2022-11-15T05:18:08;0.30;;;0.30;;
39362;SDS011;25088;43.238;23.110;2022-11-15T05:20:34;0.30;;;0.30;;
39362;SDS011;25088;43.238;23.110;2022-11-15T05:22:59;0.30;;;0.30;;
39362;SDS011;25088;43.238;23.110;2022-11-15T05:25:25;0.30;;;0.30;;
39362;SDS011;25088;43.238;23.110;2022-11-15T05:27:50;0.30;;;0.30;;
39362;SDS011;25088;43.238;23.110;2022-11-15T05:30:16;0.30;;;0.30;;
39362;SDS011;25088;43.238;23.110;2022-11-15T05:32:42;0.30;;;0.30;;
39362;SDS011;25088;43.238;23.110;2022-11-15T05:35:08;0.30;;;0.30;;
39362;SDS011;25088;43.238;23.110;2022-11-15T05:37:41;0.30;;;0.30;;
39362;SDS011;25088;43.238;23.110;2022-11-15T05:40:06;0.30;;;0.30;;
39362;SDS011;25088;43.238;23.110;2022-11-15T05:42:32;0.30;;;0.30;;
39362;SDS011;25088;43.238;23.110;2022-11-15T05:44:58;0.30;;;0.30;;
39362;SDS011;25088;43.238;23.110;2022-11-15T05:47:27;0.40;;;0.40;;
39362;SDS011;25088;43.238;23.110;2022-11-15T05:49:55;0.30;;;0.30;;
39362;SDS011;25088;43.238;23.110;2022-11-15T05:52:23;0.30;;;0.30;;
39362;SDS011;25088;43.238;23.110;2022-11-15T05:54:54;0.30;;;0.30;;
39362;SDS011;25088;43.238;23.110;2022-11-15T05:57:20;0.30;;;0.30;;
39362;SDS011;25088;43.238;23.110;2022-11-15T05:59:46;0.30;;;0.30;;
39362;SDS011;25088;43.238;23.110;2022-11-15T06:02:12;0.30;;;0.30;;
39362;SDS011;25088;43.238;23.110;2022-11-15T06:04:37;0.30;;;0.30;;
39362;SDS011;25088;43.238;23.110;2022-11-15T06:07:03;0.30;;;0.30;;
39362;SDS011;25088;43.238;23.110;2022-11-15T06:09:28;0.30;;;0.30;;
39362;SDS011;25088;43.238;23.110;2022-11-15T06:11:54;0.30;;;0.30;;
39362;SDS011;25088;43.238;23.110;2022-11-15T06:14:19;0.30;;;0.30;;
39362;SDS011;25088;43.238;23.110;2022-11-15T06:16:45;0.30;;;0.30;;
39362;SDS011;25088;43.238;23.110;2022-11-15T06:19:10;0.30;;;0.30;;
39362;SDS011;25088;43.238;23.110;2022-11-15T06:21:36;0.30;;;0.30;;
39362;SDS011;25088;43.238;23.110;2022-11-15T06:24:01;0.30;;;0.30;;
39362;SDS011;25088;43.238;23.110;2022-11-15T06:26:27;0.30;;;0.30;;
39362;SDS011;25088;43.238;23.110;2022-11-15T06:28:52;0.30;;;0.30;;
39362;SDS011;25088;43.238;23.110;2022-11-15T06:31:18;0.25;;;0.25;;
39362;SDS011;25088;43.238;23.110;2022-11-15T06:33:43;0.30;;;0.30;;
39362;SDS011;25088;43.238;23.110;2022-11-15T06:36:10;0.30;;;0.30;;
39362;SDS011;25088;43.238;23.110;2022-11-15T06:38:42;0.30;;;0.30;;
39362;SDS011;25088;43.238;23.110;2022-11-15T06:41:09;0.30;;;0.30;;
39362;SDS011;25088;43.238;23.110;2022-11-15T06:43:36;0.30;;;0.30;;
39362;SDS011;25088;43.238;23.110;2022-11-15T06:46:02;0.30;;;0.30;;
39362;SDS011;25088;43.238;23.110;2022-11-15T06:48:29;0.30;;;0.30;;
39362;SDS011;25088;43.238;23.110;2022-11-15T06:50:57;0.30;;;0.30;;
39362;SDS011;25088;43.238;23.110;2022-11-15T06:53:24;0.30;;;0.30;;
39362;SDS011;25088;43.238;23.110;2022-11-15T06:55:50;0.30;;;0.30;;
39362;SDS011;25088;43.238;23.110;2022-11-15T06:58:15;0.30;;;0.30;;
39362;SDS011;25088;43.238;23.110;2022-11-15T07:00:41;0.30;;;0.30;;
39362;SDS011;25088;43.238;23.110;2022-11-15T07:03:07;0.30;;;0.30;;
39362;SDS011;25088;43.238;23.110;2022-11-15T07:05:33;0.30;;;0.30;;
39362;SDS011;25088;43.238;23.110;2022-11-15T07:07:59;0.30;;;0.30;;
39362;SDS011;25088;43.238;23.110;2022-11-15T07:10:25;0.25;;;0.25;;
39362;SDS011;25088;43.238;23.110;2022-11-15T07:12:51;0.20;;;0.20;;
39362;SDS011;25088;43.238;23.110;2022-11-15T07:15:18;0.30;;;0.30;;
39362;SDS011;25088;43.238;23.110;2022-11-15T07:17:44;0.20;;;0.20;;
39362;SDS011;25088;43.238;23.110;2022-11-15T07:20:10;0.20;;;0.20;;
39362;SDS011;25088;43.238;23.110;2022-11-15T07:22:38;0.30;;;0.30;;
39362;SDS011;25088;43.238;23.110;2022-11-15T07:25:04;0.30;;;0.30;;
39362;SDS011;25088;43.238;23.110;2022-11-15T07:27:30;0.20;;;0.20;;
39362;SDS011;25088;43.238;23.110;2022-11-15T07:29:55;0.28;;;0.28;;
39362;SDS011;25088;43.238;23.110;2022-11-15T07:32:21;0.20;;;0.20;;
39362;SDS011;25088;43.238;23.110;2022-11-15T07:34:46;0.20;;;0.20;;
39362;SDS011;25088;43.238;23.110;2022-11-15T07:37:12;0.20;;;0.20;;
39362;SDS011;25088;43.238;23.110;2022-11-15T07:39:37;0.20;;;0.20;;
39362;SDS011;25088;43.238;23.110;2022-11-15T07:42:03;0.20;;;0.20;;
39362;SDS011;25088;43.238;23.110;2022-11-15T07:44:47;0.20;;;0.20;;
39362;SDS011;25088;43.238;23.110;2022-11-15T07:47:12;0.20;;;0.20;;
39362;SDS011;25088;43.238;23.110;2022-11-15T07:49:38;0.20;;;0.20;;
39362;SDS011;25088;43.238;23.110;2022-11-15T07:52:04;0.20;;;0.20;;
39362;SDS011;25088;43.238;23.110;2022-11-15T07:54:29;0.20;;;0.20;;
39362;SDS011;25088;43.238;23.110;2022-11-15T07:56:55;0.20;;;0.20;;
39362;SDS011;25088;43.238;23.110;2022-11-15T07:59:20;0.20;;;0.20;;
39362;SDS011;25088;43.238;23.110;2022-11-15T08:01:46;0.20;;;0.20;;
39362;SDS011;25088;43.238;23.110;2022-11-15T08:04:11;0.20;;;0.20;;
39362;SDS011;25088;43.238;23.110;2022-11-15T08:06:37;0.20;;;0.20;;
39362;SDS011;25088;43.238;23.110;2022-11-15T08:09:03;0.20;;;0.20;;
39362;SDS011;25088;43.238;23.110;2022-11-15T08:11:28;0.20;;;0.20;;
39362;SDS011;25088;43.238;23.110;2022-11-15T08:13:54;0.20;;;0.20;;
39362;SDS011;25088;43.238;23.110;2022-11-15T08:16:20;0.20;;;0.20;;
39362;SDS011;25088;43.238;23.110;2022-11-15T08:18:46;0.20;;;0.20;;
39362;SDS011;25088;43.238;23.110;2022-11-15T08:21:12;0.20;;;0.20;;
39362;SDS011;25088;43.238;23.110;2022-11-15T08:23:42;0.20;;;0.20;;
39362;SDS011;25088;43.238;23.110;2022-11-15T08:26:08;0.20;;;0.20;;
39362;SDS011;25088;43.238;23.110;2022-11-15T08:28:34;0.20;;;0.20;;
39362;SDS011;25088;43.238;23.110;2022-11-15T08:31:00;0.20;;;0.20;;
39362;SDS011;25088;43.238;23.110;2022-11-15T08:33:26;0.20;;;0.20;;
39362;SDS011;25088;43.238;23.110;2022-11-15T08:35:52;0.20;;;0.20;;
39362;SDS011;25088;43.238;23.110;2022-11-15T08:38:21;0.20;;;0.20;;
39362;SDS011;25088;43.238;23.110;2022-11-15T08:40:47;0.20;;;0.20;;
39362;SDS011;25088;43.238;23.110;2022-11-15T08:43:13;0.20;;;0.20;;
39362;SDS011;25088;43.238;23.110;2022-11-15T08:45:38;0.20;;;0.20;;
39362;SDS011;25088;43.238;23.110;2022-11-15T08:48:04;0.20;;;0.20;;
39362;SDS011;25088;43.238;23.110;2022-11-15T08:50:29;0.20;;;0.20;;
39362;SDS011;25088;43.238;23.110;2022-11-15T08:52:56;0.20;;;0.20;;
39362;SDS011;25088;43.238;23.110;2022-11-15T08:55:22;0.20;;;0.20;;
39362;SDS011;25088;43.238;23.110;2022-11-15T08:57:47;0.20;;;0.20;;
39362;SDS011;25088;43.238;23.110;2022-11-15T09:00:13;0.20;;;0.20;;
39362;SDS011;25088;43.238;23.110;2022-11-15T09:02:39;0.20;;;0.20;;
39362;SDS011;25088;43.238;23.110;2022-11-15T09:05:05;0.20;;;0.20;;
39362;SDS011;25088;43.238;23.110;2022-11-15T09:07:31;0.20;;;0.20;;
39362;SDS011;25088;43.238;23.110;2022-11-15T09:09:57;0.20;;;0.20;;
39362;SDS011;25088;43.238;23.110;2022-11-15T09:12:23;0.20;;;0.20;;
39362;SDS011;25088;43.238;23.110;2022-11-15T09:14:49;0.20;;;0.20;;
39362;SDS011;25088;43.238;23.110;2022-11-15T09:17:14;0.20;;;0.20;;
39362;SDS011;25088;43.238;23.110;2022-11-15T09:19:40;0.20;;;0.20;;
39362;SDS011;25088;43.238;23.110;2022-11-15T09:22:06;0.20;;;0.20;;
39362;SDS011;25088;43.238;23.110;2022-11-15T09:24:32;0.20;;;0.20;;
39362;SDS011;25088;43.238;23.110;2022-11-15T09:26:58;0.20;;;0.20;;
39362;SDS011;25088;43.238;23.110;2022-11-15T09:29:24;0.20;;;0.20;;
39362;SDS011;25088;43.238;23.110;2022-11-15T09:31:51;0.20;;;0.20;;
39362;SDS011;25088;43.238;23.110;2022-11-15T09:34:17;0.20;;;0.20;;
39362;SDS011;25088;43.238;23.110;2022-11-15T09:36:42;0.20;;;0.20;;
39362;SDS011;25088;43.238;23.110;2022-11-15T09:39:08;0.20;;;0.20;;
39362;SDS011;25088;43.238;23.110;2022-11-15T09:41:48;0.20;;;0.20;;
39362;SDS011;25088;43.238;23.110;2022-11-15T09:47:47;0.20;;;0.20;;
39362;SDS011;25088;43.238;23.110;2022-11-15T09:50:08;0.20;;;0.20;;
39362;SDS011;25088;43.238;23.110;2022-11-15T09:52:36;0.20;;;0.20;;
39362;SDS011;25088;43.238;23.110;2022-11-15T09:55:04;0.20;;;0.20;;
39362;SDS011;25088;43.238;23.110;2022-11-15T10:00:04;0.10;;;0.10;;
39362;SDS011;25088;43.238;23.110;2022-11-15T10:05:12;0.20;;;0.20;;
39362;SDS011;25088;43.238;23.110;2022-11-15T10:10:29;0.20;;;0.20;;
39362;SDS011;25088;43.238;23.110;2022-11-15T10:13:04;0.20;;;0.20;;
39362;SDS011;25088;43.238;23.110;2022-11-15T10:15:32;0.20;;;0.20;;
39362;SDS011;25088;43.238;23.110;2022-11-15T10:20:49;0.20;;;0.20;;
39362;SDS011;25088;43.238;23.110;2022-11-15T10:23:18;0.20;;;0.20;;
39362;SDS011;25088;43.238;23.110;2022-11-15T10:25:45;0.20;;;0.20;;
39362;SDS011;25088;43.238;23.110;2022-11-15T10:28:21;0.20;;;0.20;;
39362;SDS011;25088;43.238;23.110;2022-11-15T10:30:55;0.20;;;0.20;;
39362;SDS011;25088;43.238;23.110;2022-11-15T10:36:17;0.20;;;0.20;;
39362;SDS011;25088;43.238;23.110;2022-11-15T10:41:13;0.20;;;0.20;;
39362;SDS011;25088;43.238;23.110;2022-11-15T10:43:39;0.20;;;0.20;;
39362;SDS011;25088;43.238;23.110;2022-11-15T10:46:19;0.20;;;0.20;;
39362;SDS011;25088;43.238;23.110;2022-11-15T10:48:46;0.20;;;0.20;;
39362;SDS011;25088;43.238;23.110;2022-11-15T10:54:10;0.20;;;0.20;;
39362;SDS011;25088;43.238;23.110;2022-11-15T10:56:37;0.20;;;0.20;;
39362;SDS011;25088;43.238;23.110;2022-11-15T10:59:07;0.20;;;0.20;;
39362;SDS011;25088;43.238;23.110;2022-11-15T11:01:47;0.20;;;0.20;;
39362;SDS011;25088;43.238;23.110;2022-11-15T11:04:13;0.20;;;0.20;;
39362;SDS011;25088;43.238;23.110;2022-11-15T11:12:04;0.20;;;0.20;;
39362;SDS011;25088;43.238;23.110;2022-11-15T11:14:35;0.20;;;0.20;;
39362;SDS011;25088;43.238;23.110;2022-11-15T11:25:42;0.20;;;0.20;;
39362;SDS011;25088;43.238;23.110;2022-11-15T11:31:32;0.20;;;0.20;;
39362;SDS011;25088;43.238;23.110;2022-11-15T11:39:42;0.20;;;0.20;;
39362;SDS011;25088;43.238;23.110;2022-11-15T11:48:40;0.20;;;0.20;;
39362;SDS011;25088;43.238;23.110;2022-11-15T11:51:24;0.20;;;0.20;;
39362;SDS011;25088;43.238;23.110;2022-11-15T11:53:57;0.20;;;0.20;;
39362;SDS011;25088;43.238;23.110;2022-11-15T11:56:31;0.20;;;0.20;;
39362;SDS011;25088;43.238;23.110;2022-11-15T11:59:05;0.20;;;0.20;;
39362;SDS011;25088;43.238;23.110;2022-11-15T12:01:45;0.10;;;0.10;;
39362;SDS011;25088;43.238;23.110;2022-11-15T12:04:14;0.20;;;0.20;;
39362;SDS011;25088;43.238;23.110;2022-11-15T12:15:43;0.10;;;0.10;;
39362;SDS011;25088;43.238;23.110;2022-11-15T12:18:15;0.10;;;0.10;;
39362;SDS011;25088;43.238;23.110;2022-11-15T12:20:47;0.13;;;0.13;;
39362;SDS011;25088;43.238;23.110;2022-11-15T12:23:20;0.20;;;0.20;;
39362;SDS011;25088;43.238;23.110;2022-11-15T12:26:04;0.20;;;0.20;;
39362;SDS011;25088;43.238;23.110;2022-11-15T12:31:51;0.13;;;0.13;;
39362;SDS011;25088;43.238;23.110;2022-11-15T12:36:41;0.13;;;0.13;;
39362;SDS011;25088;43.238;23.110;2022-11-15T12:39:09;0.10;;;0.10;;
39362;SDS011;25088;43.238;23.110;2022-11-15T12:41:43;0.20;;;0.20;;
39362;SDS011;25088;43.238;23.110;2022-11-15T13:02:20;0.20;;;0.20;;
39362;SDS011;25088;43.238;23.110;2022-11-15T13:04:49;0.20;;;0.20;;
39362;SDS011;25088;43.238;23.110;2022-11-15T13:10:00;0.20;;;0.20;;
39362;SDS011;25088;43.238;23.110;2022-11-15T13:22:44;0.20;;;0.20;;
39362;SDS011;25088;43.238;23.110;2022-11-15T13:28:25;0.20;;;0.20;;
39362;SDS011;25088;43.238;23.110;2022-11-15T13:33:53;0.10;;;0.10;;
39362;SDS011;25088;43.238;23.110;2022-11-15T13:36:23;0.20;;;0.20;;
39362;SDS011;25088;43.238;23.110;2022-11-15T13:38:55;0.20;;;0.20;;
39362;SDS011;25088;43.238;23.110;2022-11-15T13:41:26;0.20;;;0.20;;
39362;SDS011;25088;43.238;23.110;2022-11-15T13:44:00;0.20;;;0.20;;
39362;SDS011;25088;43.238;23.110;2022-11-15T13:56:36;0.20;;;0.20;;
39362;SDS011;25088;43.238;23.110;2022-11-15T13:59:10;0.20;;;0.20;;
39362;SDS011;25088;43.238;23.110;2022-11-15T14:01:41;0.20;;;0.20;;
39362;SDS011;25088;43.238;23.110;2022-11-15T14:07:30;0.20;;;0.20;;
39362;SDS011;25088;43.238;23.110;2022-11-15T14:16:23;0.20;;;0.20;;
39362;SDS011;25088;43.238;23.110;2022-11-15T14:19:01;0.20;;;0.20;;
39362;SDS011;25088;43.238;23.110;2022-11-15T14:21:28;0.20;;;0.20;;
39362;SDS011;25088;43.238;23.110;2022-11-15T14:24:13;0.20;;;0.20;;
39362;SDS011;25088;43.238;23.110;2022-11-15T14:26:54;0.20;;;0.20;;
39362;SDS011;25088;43.238;23.110;2022-11-15T14:29:29;0.20;;;0.20;;
39362;SDS011;25088;43.238;23.110;2022-11-15T14:32:12;0.20;;;0.20;;
39362;SDS011;25088;43.238;23.110;2022-11-15T14:34:41;0.20;;;0.20;;
39362;SDS011;25088;43.238;23.110;2022-11-15T14:40:03;0.20;;;0.20;;
39362;SDS011;25088;43.238;23.110;2022-11-15T14:42:30;0.20;;;0.20;;
39362;SDS011;25088;43.238;23.110;2022-11-15T14:44:56;0.20;;;0.20;;
39362;SDS011;25088;43.238;23.110;2022-11-15T14:47:22;0.20;;;0.20;;
39362;SDS011;25088;43.238;23.110;2022-11-15T14:49:48;0.20;;;0.20;;
39362;SDS011;25088;43.238;23.110;2022-11-15T14:52:24;0.10;;;0.10;;
39362;SDS011;25088;43.238;23.110;2022-11-15T14:54:50;0.20;;;0.20;;
39362;SDS011;25088;43.238;23.110;2022-11-15T14:57:15;0.20;;;0.20;;
39362;SDS011;25088;43.238;23.110;2022-11-15T14:59:41;0.20;;;0.20;;
39362;SDS011;25088;43.238;23.110;2022-11-15T15:05:10;0.20;;;0.20;;
39362;SDS011;25088;43.238;23.110;2022-11-15T15:07:41;0.20;;;0.20;;
39362;SDS011;25088;43.238;23.110;2022-11-15T15:10:07;0.20;;;0.20;;
39362;SDS011;25088;43.238;23.110;2022-11-15T15:12:33;0.20;;;0.20;;
39362;SDS011;25088;43.238;23.110;2022-11-15T15:14:58;0.10;;;0.10;;
39362;SDS011;25088;43.238;23.110;2022-11-15T15:17:24;0.20;;;0.20;;
39362;SDS011;25088;43.238;23.110;2022-11-15T15:19:49;0.20;;;0.20;;
39362;SDS011;25088;43.238;23.110;2022-11-15T15:22:15;0.20;;;0.20;;
39362;SDS011;25088;43.238;23.110;2022-11-15T15:24:43;0.20;;;0.20;;
39362;SDS011;25088;43.238;23.110;2022-11-15T15:27:09;0.20;;;0.20;;
39362;SDS011;25088;43.238;23.110;2022-11-15T15:29:35;0.10;;;0.10;;
39362;SDS011;25088;43.238;23.110;2022-11-15T15:32:01;0.20;;;0.20;;
39362;SDS011;25088;43.238;23.110;2022-11-15T15:34:27;0.17;;;0.17;;
39362;SDS011;25088;43.238;23.110;2022-11-15T15:39:48;0.20;;;0.20;;
39362;SDS011;25088;43.238;23.110;2022-11-15T15:42:14;0.20;;;0.20;;
39362;SDS011;25088;43.238;23.110;2022-11-15T15:44:39;0.20;;;0.20;;
39362;SDS011;25088;43.238;23.110;2022-11-15T15:47:12;0.20;;;0.20;;
39362;SDS011;25088;43.238;23.110;2022-11-15T15:49:40;0.20;;;0.20;;
39362;SDS011;25088;43.238;23.110;2022-11-15T15:52:05;0.13;;;0.13;;
39362;SDS011;25088;43.238;23.110;2022-11-15T15:54:31;0.20;;;0.20;;
39362;SDS011;25088;43.238;23.110;2022-11-15T15:56:56;0.20;;;0.20;;
39362;SDS011;25088;43.238;23.110;2022-11-15T15:59:22;0.10;;;0.10;;
39362;SDS011;25088;43.238;23.110;2022-11-15T16:01:47;0.10;;;0.10;;
39362;SDS011;25088;43.238;23.110;2022-11-15T16:04:13;0.20;;;0.20;;
39362;SDS011;25088;43.238;23.110;2022-11-15T16:06:39;0.20;;;0.20;;
39362;SDS011;25088;43.238;23.110;2022-11-15T16:09:12;0.20;;;0.20;;
39362;SDS011;25088;43.238;23.110;2022-11-15T16:11:43;0.20;;;0.20;;
39362;SDS011;25088;43.238;23.110;2022-11-15T16:14:09;0.20;;;0.20;;
39362;SDS011;25088;43.238;23.110;2022-11-15T16:16:35;0.10;;;0.10;;
39362;SDS011;25088;43.238;23.110;2022-11-15T16:19:02;0.20;;;0.20;;
39362;SDS011;25088;43.238;23.110;2022-11-15T16:21:28;0.10;;;0.10;;
39362;SDS011;25088;43.238;23.110;2022-11-15T16:23:53;0.20;;;0.20;;
39362;SDS011;25088;43.238;23.110;2022-11-15T16:28:54;0.20;;;0.20;;
39362;SDS011;25088;43.238;23.110;2022-11-15T16:31:20;0.20;;;0.20;;
39362;SDS011;25088;43.238;23.110;2022-11-15T16:33:48;0.20;;;0.20;;
39362;SDS011;25088;43.238;23.110;2022-11-15T16:36:17;0.20;;;0.20;;
39362;SDS011;25088;43.238;23.110;2022-11-15T16:38:50;0.20;;;0.20;;
39362;SDS011;25088;43.238;23.110;2022-11-15T16:41:16;0.20;;;0.20;;
39362;SDS011;25088;43.238;23.110;2022-11-15T16:43:44;0.20;;;0.20;;
39362;SDS011;25088;43.238;23.110;2022-11-15T16:46:17;0.20;;;0.20;;
39362;SDS011;25088;43.238;23.110;2022-11-15T16:48:45;0.20;;;0.20;;
39362;SDS011;25088;43.238;23.110;2022-11-15T16:51:11;0.20;;;0.20;;
39362;SDS011;25088;43.238;23.110;2022-11-15T16:53:37;0.20;;;0.20;;
39362;SDS011;25088;43.238;23.110;2022-11-15T16:56:03;0.20;;;0.20;;
39362;SDS011;25088;43.238;23.110;2022-11-15T16:58:29;0.10;;;0.10;;
39362;SDS011;25088;43.238;23.110;2022-11-15T17:00:55;0.10;;;0.10;;
39362;SDS011;25088;43.238;23.110;2022-11-15T17:03:21;0.20;;;0.20;;
39362;SDS011;25088;43.238;23.110;2022-11-15T17:05:48;0.20;;;0.20;;
39362;SDS011;25088;43.238;23.110;2022-11-15T17:08:13;0.20;;;0.20;;
39362;SDS011;25088;43.238;23.110;2022-11-15T17:10:39;0.17;;;0.17;;
39362;SDS011;25088;43.238;23.110;2022-11-15T17:13:06;0.20;;;0.20;;
39362;SDS011;25088;43.238;23.110;2022-11-15T17:15:36;0.20;;;0.20;;
39362;SDS011;25088;43.238;23.110;2022-11-15T17:18:01;0.10;;;0.10;;
39362;SDS011;25088;43.238;23.110;2022-11-15T17:20:27;0.20;;;0.20;;